Time;durP1;ratioP1;P1;durP2;ratioP2;P2;SDS_P1;SDS_P2;PMS_P1;PMS_P2;Temp;Humidity;BMP_temperature;BMP_pressure;BME280_temperature;BME280_humidity;BME280_pressure;Samples;Min_cycle;Max_cycle;Signal;HPM_P1;HPM_P2
2022/11/15 00:01:11;;;;;;;;;8.00;8.00;;;;;11.69;84.01;100176.09;5077539;27;45260;-73
2022/11/15 00:03:36;;;;;;;;;10.00;10.00;;;;;11.59;84.19;100165.16;5078341;27;45281;-71
2022/11/15 00:06:03;;;;;;;;;12.50;12.50;;;;;11.60;84.33;100173.91;5077215;27;45857;-72
2022/11/15 00:08:32;;;;;;;;;11.00;11.00;;;;;11.59;84.52;100172.19;5076184;28;45413;-71
2022/11/15 00:11:00;;;;;;;;;12.00;11.75;;;;;11.56;84.11;100181.13;5077399;27;45319;-73
2022/11/15 00:13:26;;;;;;;;;5.75;5.75;;;;;11.51;84.19;100173.44;5076921;27;45480;-72
2022/11/15 00:15:51;;;;;;;;;8.00;8.00;;;;;11.51;84.57;100173.44;5075412;27;46145;-73
2022/11/15 00:18:17;;;;;;;;;8.00;8.00;;;;;11.49;83.66;100167.41;5077099;27;45285;-71
2022/11/15 00:20:43;;;;;;;;;7.75;7.75;;;;;11.46;83.83;100158.81;5077470;27;45352;-70
2022/11/15 00:23:08;;;;;;;;;7.25;7.25;;;;;11.42;84.35;100157.28;5077746;27;45505;-71
2022/11/15 00:25:34;;;;;;;;;7.75;7.75;;;;;11.42;83.80;100144.09;5077317;27;45290;-71
2022/11/15 00:28:00;;;;;;;;;7.75;7.75;;;;;11.44;83.81;100153.63;5077189;27;45389;-71
2022/11/15 00:30:26;;;;;;;;;8.25;8.25;;;;;11.40;83.60;100152.06;5092967;27;45364;-72
2022/11/15 00:32:51;;;;;;;;;7.00;7.00;;;;;11.35;83.88;100148.81;5077311;27;45531;-70
2022/11/15 00:35:18;;;;;;;;;5.75;5.75;;;;;11.27;83.52;100145.72;5077511;27;45190;-72
2022/11/15 00:37:43;;;;;;;;;6.00;6.00;;;;;11.24;83.63;100144.09;5077178;27;45355;-72
2022/11/15 00:40:10;;;;;;;;;6.00;6.00;;;;;11.21;84.01;100146.91;5077473;27;45366;-72
2022/11/15 00:42:35;;;;;;;;;8.00;8.00;;;;;11.13;83.79;100134.09;5075934;27;45172;-71
2022/11/15 00:45:01;;;;;;;;;4.00;4.00;;;;;11.14;83.48;100132.34;5076659;27;45205;-72
2022/11/15 00:47:29;;;;;;;;;7.50;7.50;;;;;11.06;83.45;100127.44;5076800;27;45413;-72
2022/11/15 00:49:54;;;;;;;;;7.75;7.75;;;;;11.03;84.10;100130.22;5076676;27;45445;-71
2022/11/15 00:52:19;;;;;;;;;3.75;3.75;;;;;10.97;83.83;100128.72;5076939;27;45365;-70
2022/11/15 00:54:45;;;;;;;;;6.00;6.00;;;;;10.95;83.43;100136.72;5076389;28;51696;-71
2022/11/15 00:57:10;;;;;;;;;6.50;6.50;;;;;10.91;83.71;100136.94;5077016;27;45438;-70
2022/11/15 00:59:35;;;;;;;;;4.50;4.50;;;;;10.86;83.49;100129.28;5076409;28;50810;-73
2022/11/15 01:02:01;;;;;;;;;6.50;6.50;;;;;10.79;83.36;100127.88;5076743;27;45651;-71
2022/11/15 01:04:26;;;;;;;;;4.75;4.75;;;;;10.77;83.73;100127.94;5076501;27;45798;-71
2022/11/15 01:06:52;;;;;;;;;4.25;4.25;;;;;10.74;83.62;100125.44;5076572;27;45244;-71
2022/11/15 01:09:17;;;;;;;;;5.00;5.00;;;;;10.70;83.40;100125.69;5076554;28;45226;-71
2022/11/15 01:11:43;;;;;;;;;7.00;7.00;;;;;10.66;83.37;100119.69;5077287;27;45268;-71
2022/11/15 01:14:08;;;;;;;;;6.00;6.00;;;;;10.61;83.82;100121.69;5076791;27;46162;-73
2022/11/15 01:16:33;;;;;;;;;5.75;5.75;;;;;10.61;83.69;100111.19;5076642;27;45203;-71
2022/11/15 01:18:59;;;;;;;;;5.75;5.75;;;;;10.48;83.27;100092.50;5077305;27;45797;-73
2022/11/15 01:21:25;;;;;;;;;6.50;6.50;;;;;10.57;83.28;100110.47;5077080;28;45232;-72
2022/11/15 01:23:55;;;;;;;;;6.00;6.00;;;;;10.58;83.18;100106.91;5076521;27;46733;-72
2022/11/15 01:26:21;;;;;;;;;6.50;5.75;;;;;10.56;83.69;100103.50;5076451;27;45385;-71
2022/11/15 01:28:46;;;;;;;;;7.75;7.75;;;;;10.56;83.48;100100.03;5076342;28;45438;-71
2022/11/15 01:31:14;;;;;;;;;7.25;7.00;;;;;10.56;83.88;100092.16;5076709;27;45532;-72
2022/11/15 01:33:40;;;;;;;;;5.50;5.50;;;;;10.57;83.90;100101.72;5076185;28;46901;-72
2022/11/15 01:36:07;;;;;;;;;6.00;5.50;;;;;10.55;83.50;100087.81;5076280;27;45355;-71
2022/11/15 01:38:33;;;;;;;;;7.00;7.00;;;;;10.55;83.98;100090.44;5075028;28;45286;-73
2022/11/15 01:40:58;;;;;;;;;6.75;6.75;;;;;10.50;83.37;100080.13;5076245;27;45634;-72
2022/11/15 01:43:27;;;;;;;;;8.00;8.00;;;;;10.51;83.87;100084.47;5108768;27;47977;-73
2022/11/15 01:45:58;;;;;;;;;6.00;6.00;;;;;10.47;84.28;100078.50;5091509;27;45334;-71
2022/11/15 01:48:28;;;;;;;;;6.25;6.25;;;;;10.37;83.25;100070.16;5076061;27;45315;-71
2022/11/15 01:50:54;;;;;;;;;6.25;6.25;;;;;10.40;83.88;100078.88;5074934;28;45213;-72
2022/11/15 01:53:23;;;;;;;;;13.25;13.25;;;;;10.35;83.29;100079.06;5075167;27;45366;-72
2022/11/15 01:55:49;;;;;;;;;6.50;6.00;;;;;10.31;83.67;100062.56;5076323;27;45388;-72
2022/11/15 01:58:15;;;;;;;;;6.00;6.00;;;;;10.24;83.29;100050.66;5076875;27;45357;-72
2022/11/15 02:00:40;;;;;;;;;5.75;5.75;;;;;10.27;83.01;100062.81;5076898;27;45442;-72
2022/11/15 02:03:06;;;;;;;;;5.25;5.25;;;;;10.20;82.90;100052.59;5075906;28;45520;-71
2022/11/15 02:05:32;;;;;;;;;6.75;6.75;;;;;10.18;83.50;100045.69;5075621;27;45366;-72
2022/11/15 02:07:59;;;;;;;;;7.75;6.50;;;;;10.16;83.41;100048.41;5076120;27;45310;-72
2022/11/15 02:10:24;;;;;;;;;7.00;7.00;;;;;10.15;83.38;100038.81;5076028;28;45576;-72
2022/11/15 02:12:52;;;;;;;;;5.00;5.00;;;;;10.08;83.04;100037.38;5073874;28;48231;-72
2022/11/15 02:15:18;;;;;;;;;7.00;5.25;;;;;10.07;83.00;100040.91;5091488;27;45582;-71
2022/11/15 02:17:58;;;;;;;;;6.25;6.25;;;;;10.05;83.39;100040.13;5075699;27;45494;-72
2022/11/15 02:20:43;;;;;;;;;7.00;7.00;;;;;10.03;83.36;100031.47;5075779;27;45613;-72
2022/11/15 02:23:56;;;;;;;;;7.25;7.25;;;;;9.97;83.19;100027.38;5075227;28;45297;-72
2022/11/15 02:26:51;;;;;;;;;7.00;7.00;;;;;9.92;82.65;100017.06;5027920;27;45505;-71
2022/11/15 02:29:43;;;;;;;;;6.75;6.75;;;;;9.88;83.29;100006.78;5075968;27;45389;-72
2022/11/15 02:32:11;;;;;;;;;5.00;5.00;;;;;9.89;82.82;100013.75;5075495;27;45220;-72
2022/11/15 02:35:01;;;;;;;;;7.00;6.75;;;;;9.85;83.18;100017.44;5075264;27;46923;-71
2022/11/15 02:37:39;;;;;;;;;9.50;9.50;;;;;9.81;82.58;100005.38;5075205;27;45379;-72
2022/11/15 02:40:49;;;;;;;;;5.25;5.25;;;;;9.77;82.89;100000.25;5075281;28;45374;-70
2022/11/15 02:46:15;;;;;;;;;8.00;8.00;;;;;9.67;82.50;99990.22;5074745;28;45362;-73
2022/11/15 02:48:42;;;;;;;;;5.00;5.00;;;;;9.67;82.84;99987.59;5075094;27;45337;-72
2022/11/15 02:51:08;;;;;;;;;4.50;4.50;;;;;9.65;82.73;99988.53;5074900;28;45252;-71
2022/11/15 02:53:33;;;;;;;;;5.00;5.00;;;;;9.64;82.32;99992.06;5107493;27;45259;-72
2022/11/15 02:56:00;;;;;;;;;6.00;6.00;;;;;9.58;82.49;99984.47;5074497;27;45543;-71
2022/11/15 02:58:34;;;;;;;;;5.50;5.50;;;;;9.60;82.54;99977.38;5075013;27;45249;-71
2022/11/15 03:01:12;;;;;;;;;6.50;6.50;;;;;9.57;82.47;99971.44;5074965;27;45345;-73
2022/11/15 03:03:40;;;;;;;;;5.00;5.00;;;;;9.57;82.81;99967.03;5073945;28;45451;-71
2022/11/15 03:06:19;;;;;;;;;5.50;5.50;;;;;9.55;83.03;99960.16;5074065;27;45547;-70
2022/11/15 03:08:52;;;;;;;;;5.25;5.25;;;;;9.54;82.95;99953.16;5074844;28;45287;-71
2022/11/15 03:11:21;;;;;;;;;5.00;4.75;;;;;9.52;82.90;99949.75;5075123;27;45244;-72
2022/11/15 03:14:19;;;;;;;;;6.75;5.00;;;;;9.47;82.58;99955.25;5074856;27;45565;-71
2022/11/15 03:16:58;;;;;;;;;6.00;6.00;;;;;9.45;82.82;99947.41;5065890;28;46490;-71
2022/11/15 03:19:31;;;;;;;;;5.25;5.25;;;;;9.46;83.20;99943.88;5074538;27;45307;-72
2022/11/15 03:22:02;;;;;;;;;4.25;4.25;;;;;9.44;82.79;99937.84;5074402;27;45430;-72
2022/11/15 03:24:30;;;;;;;;;6.00;6.00;;;;;9.46;82.76;99936.00;5074763;27;45398;-72
2022/11/15 03:27:00;;;;;;;;;5.00;5.00;;;;;9.50;83.25;99934.94;5089706;27;47015;-71
2022/11/15 03:29:34;;;;;;;;;5.50;5.50;;;;;9.50;83.12;99932.31;5074238;27;45355;-71
2022/11/15 03:32:11;;;;;;;;;6.00;6.00;;;;;9.52;83.01;99921.75;5074702;27;45362;-72
2022/11/15 03:34:42;;;;;;;;;6.50;6.50;;;;;9.59;82.65;99922.34;5074479;28;45276;-73
2022/11/15 03:37:12;;;;;;;;;5.25;5.25;;;;;9.59;82.78;99917.91;5073925;28;45474;-73
2022/11/15 03:39:38;;;;;;;;;10.00;10.00;;;;;9.58;82.66;99915.38;5074376;27;45419;-72
2022/11/15 03:42:12;;;;;;;;;5.00;5.00;;;;;9.62;82.54;99917.78;5074277;27;45356;-72
2022/11/15 03:45:16;;;;;;;;;4.75;4.75;;;;;9.61;82.56;99909.97;5074411;27;45539;-71
2022/11/15 03:47:49;;;;;;;;;5.00;5.00;;;;;9.60;82.76;99905.66;5011509;28;47244;-72
2022/11/15 03:50:18;;;;;;;;;6.00;6.00;;;;;9.63;82.56;99911.59;5011436;28;45384;-72
2022/11/15 03:52:48;;;;;;;;;5.25;4.25;;;;;9.59;82.02;99906.56;5044828;27;45347;-73
2022/11/15 03:55:17;;;;;;;;;3.75;3.75;;;;;9.51;82.26;99896.41;5074281;27;45238;-73
2022/11/15 03:57:43;;;;;;;;;3.50;3.50;;;;;9.55;81.79;99903.22;5074024;28;45660;-71
2022/11/15 04:00:09;;;;;;;;;6.50;6.50;;;;;9.57;82.14;99900.53;5073716;28;45359;-72
2022/11/15 04:02:34;;;;;;;;;4.75;4.25;;;;;9.57;82.24;99911.88;5072457;28;45409;-73
2022/11/15 04:05:00;;;;;;;;;4.25;4.25;;;;;9.52;82.46;99894.63;5073678;28;45378;-71
2022/11/15 04:07:25;;;;;;;;;6.00;6.00;;;;;9.50;82.18;99894.72;5073709;27;45341;-71
2022/11/15 04:10:02;;;;;;;;;3.50;3.50;;;;;9.52;82.20;99892.88;5073953;27;45395;-72
2022/11/15 04:12:32;;;;;;;;;4.25;3.25;;;;;9.46;82.39;99893.16;5073783;27;45275;-72
2022/11/15 04:15:09;;;;;;;;;4.00;4.00;;;;;9.46;82.69;99899.25;5089326;27;45504;-71
2022/11/15 04:17:41;;;;;;;;;3.00;3.00;;;;;9.44;82.21;99900.25;5075803;27;46270;-71
2022/11/15 04:25:55;;;;;;;;;3.50;3.50;;;;;9.37;83.00;99894.41;5077915;28;45289;-71
2022/11/15 04:28:21;;;;;;;;;3.00;3.00;;;;;9.33;82.82;99892.84;5110309;27;47537;-72
2022/11/15 04:30:47;;;;;;;;;3.75;3.75;;;;;9.31;83.30;99892.94;5077427;27;45444;-71
2022/11/15 04:33:13;;;;;;;;;5.25;4.00;;;;;9.28;83.06;99890.47;5077202;27;45302;-72
2022/11/15 04:35:38;;;;;;;;;4.50;4.50;;;;;9.19;83.05;99878.59;5077621;27;45310;-71
2022/11/15 04:38:06;;;;;;;;;5.00;5.00;;;;;9.12;83.52;99863.22;5077307;27;45255;-72
2022/11/15 04:40:31;;;;;;;;;3.25;3.25;;;;;9.18;83.37;99874.28;5077063;27;45299;-72
2022/11/15 04:42:57;;;;;;;;;3.00;3.00;;;;;9.18;83.58;99874.28;5076945;28;45245;-71
2022/11/15 04:45:22;;;;;;;;;3.75;3.75;;;;;9.15;83.75;99868.34;5077246;27;45347;-71
2022/11/15 04:47:48;;;;;;;;;3.00;3.00;;;;;9.16;83.82;99865.63;5092596;27;45929;-72
2022/11/15 04:50:14;;;;;;;;;3.50;3.50;;;;;9.16;84.65;99868.25;5077156;27;45241;-72
2022/11/15 04:52:49;;;;;;;;;6.00;4.25;;;;;9.17;84.51;99859.47;5077127;27;45234;-72
2022/11/15 04:55:15;;;;;;;;;2.50;2.50;;;;;9.13;84.79;99852.66;5077118;27;45186;-72
2022/11/15 04:57:40;;;;;;;;;4.50;3.75;;;;;9.18;84.50;99849.81;5092156;27;47309;-72
2022/11/15 05:00:09;;;;;;;;;5.00;5.00;;;;;9.15;84.74;99852.59;5076557;27;45330;-72
2022/11/15 05:05:18;;;;;;;;;6.00;6.00;;;;;9.11;84.55;99840.53;5076538;28;45451;-72
2022/11/15 05:07:43;;;;;;;;;6.00;6.00;;;;;9.07;84.19;99845.06;5074655;28;54604;-71
2022/11/15 05:10:09;;;;;;;;;4.00;4.00;;;;;9.04;84.72;99843.44;5076345;27;45314;-71
2022/11/15 05:12:34;;;;;;;;;3.75;3.75;;;;;9.03;84.96;99838.25;5076314;27;45496;-72
2022/11/15 05:14:59;;;;;;;;;3.75;3.75;;;;;9.05;85.05;99849.53;5076604;27;45411;-73
2022/11/15 05:17:25;;;;;;;;;3.75;3.75;;;;;9.04;85.04;99840.81;5076154;27;46219;-72
2022/11/15 05:19:51;;;;;;;;;4.75;4.75;;;;;9.03;85.28;99836.50;5076150;27;45320;-71
2022/11/15 05:22:17;;;;;;;;;6.00;6.00;;;;;9.02;85.15;99826.91;5074839;28;45329;-72
2022/11/15 05:24:42;;;;;;;;;6.25;6.25;;;;;9.04;85.50;99832.09;5076406;27;45584;-72
2022/11/15 05:27:08;;;;;;;;;6.75;6.00;;;;;9.07;85.24;99829.31;5076089;27;45380;-71
2022/11/15 05:29:33;;;;;;;;;7.50;7.50;;;;;9.04;85.52;99822.47;5075410;27;45382;-71
2022/11/15 05:31:59;;;;;;;;;7.00;7.00;;;;;9.05;85.62;99828.53;5075916;28;52894;-71
2022/11/15 05:34:25;;;;;;;;;6.00;6.00;;;;;9.07;85.64;99834.56;5076616;27;45462;-71
2022/11/15 05:36:51;;;;;;;;;6.00;6.00;;;;;8.93;85.56;99811.56;5076353;27;46282;-71
2022/11/15 05:39:16;;;;;;;;;8.25;8.25;;;;;9.09;85.84;99837.13;5075965;27;45302;-73
2022/11/15 05:41:46;;;;;;;;;8.00;8.00;;;;;9.04;85.66;99829.47;5076649;27;45291;-72
2022/11/15 05:44:14;;;;;;;;;8.00;8.00;;;;;9.14;85.73;99843.84;5091986;27;45351;-71
2022/11/15 05:46:41;;;;;;;;;7.75;7.75;;;;;9.17;85.87;99843.72;5073875;28;46095;-71
2022/11/15 05:49:09;;;;;;;;;6.00;6.00;;;;;9.18;85.65;99839.31;5075859;27;45246;-70
2022/11/15 05:51:35;;;;;;;;;6.00;6.00;;;;;9.20;85.81;99840.94;5075806;27;45359;-71
2022/11/15 05:54:02;;;;;;;;;5.25;5.25;;;;;9.27;85.94;99836.28;5075884;27;45422;-70
2022/11/15 05:56:28;;;;;;;;;5.75;5.75;;;;;9.32;85.88;99829.03;5077247;27;46140;-72
2022/11/15 05:58:56;;;;;;;;;7.25;7.25;;;;;9.36;86.06;99819.22;5075974;27;45301;-71
2022/11/15 06:01:22;;;;;;;;;6.50;6.50;;;;;9.40;86.06;99817.31;5075779;27;45394;-72
2022/11/15 06:03:48;;;;;;;;;6.00;6.00;;;;;9.45;86.22;99818.78;5075891;27;45397;-71
2022/11/15 06:06:13;;;;;;;;;8.00;8.00;;;;;9.50;86.26;99811.53;5075486;27;45420;-71
2022/11/15 06:08:38;;;;;;;;;4.00;4.00;;;;;9.54;86.07;99799.13;5076690;28;45292;-72
2022/11/15 06:11:07;;;;;;;;;6.00;6.00;;;;;9.52;86.05;99784.38;5075583;27;45373;-71
2022/11/15 06:13:33;;;;;;;;;4.00;4.00;;;;;9.61;85.89;99784.78;5075635;27;45430;-72
2022/11/15 06:15:59;;;;;;;;;5.75;5.75;;;;;9.65;86.81;99782.88;5075361;27;46274;-72
2022/11/15 06:18:24;;;;;;;;;6.50;6.50;;;;;9.69;86.09;99776.53;5075291;27;45252;-71
2022/11/15 06:20:49;;;;;;;;;7.00;7.00;;;;;9.76;86.19;99787.56;5075294;27;45256;-72
2022/11/15 06:23:15;;;;;;;;;5.00;5.00;;;;;9.78;85.98;99776.06;5074226;28;45636;-71
2022/11/15 06:25:40;;;;;;;;;5.00;5.00;;;;;9.79;85.58;99775.16;5075260;27;45367;-71
2022/11/15 06:28:06;;;;;;;;;7.00;7.00;;;;;9.81;85.63;99775.06;5075210;27;45208;-72
2022/11/15 06:30:31;;;;;;;;;9.25;9.25;;;;;9.83;85.67;99770.56;5074268;28;45291;-72
2022/11/15 06:33:04;;;;;;;;;6.00;6.00;;;;;9.86;85.62;99759.91;5076813;27;45241;-73
2022/11/15 06:35:32;;;;;;;;;5.50;5.50;;;;;9.90;85.38;99760.63;5076212;28;45635;-70
2022/11/15 06:38:03;;;;;;;;;5.00;5.00;;;;;9.93;85.70;99755.22;5075299;27;45382;-72
2022/11/15 06:40:28;;;;;;;;;11.00;10.50;;;;;9.92;85.45;99751.72;5090625;27;45346;-72
2022/11/15 06:42:59;;;;;;;;;5.75;5.75;;;;;9.91;85.12;99733.44;5075034;27;45542;-72
2022/11/15 06:45:24;;;;;;;;;5.00;5.00;;;;;9.94;85.57;99734.09;5074710;27;45397;-72
2022/11/15 06:47:49;;;;;;;;;10.00;8.25;;;;;9.99;85.15;99739.13;5074641;27;45351;-72
2022/11/15 06:50:15;;;;;;;;;5.50;5.00;;;;;9.99;85.60;99722.50;5074858;28;45342;-72
2022/11/15 06:52:40;;;;;;;;;5.25;5.25;;;;;10.02;84.96;99728.47;5075564;27;45263;-71
2022/11/15 06:55:06;;;;;;;;;8.25;8.25;;;;;10.01;85.37;99733.78;5072986;28;48301;-73
2022/11/15 06:57:32;;;;;;;;;4.50;4.50;;;;;10.00;85.56;99732.94;5076571;27;45608;-72
2022/11/15 06:59:57;;;;;;;;;5.00;5.00;;;;;9.99;85.17;99723.38;5074879;27;45381;-71
2022/11/15 07:02:23;;;;;;;;;8.25;8.25;;;;;9.96;85.20;99712.16;5074816;27;45564;-72
2022/11/15 07:04:48;;;;;;;;;16.00;15.00;;;;;10.01;85.11;99708.38;5074366;27;46358;-73
2022/11/15 07:07:13;;;;;;;;;8.00;8.00;;;;;10.00;85.16;99708.44;5074805;27;45303;-71
2022/11/15 07:09:38;;;;;;;;;9.50;9.50;;;;;10.02;85.45;99682.94;5090914;27;45242;-72
2022/11/15 07:12:04;;;;;;;;;6.25;6.25;;;;;10.04;85.39;99684.56;5074735;27;45172;-71
2022/11/15 07:14:30;;;;;;;;;7.50;6.25;;;;;10.02;85.57;99685.56;5074854;27;45414;-73
2022/11/15 07:16:55;;;;;;;;;7.50;7.50;;;;;10.01;85.55;99682.09;5107302;27;45536;-72
2022/11/15 07:19:20;;;;;;;;;6.00;6.00;;;;;9.91;85.52;99670.38;5074515;27;45372;-71
2022/11/15 07:21:46;;;;;;;;;9.75;9.75;;;;;9.98;85.26;99698.03;5070825;28;45485;-71
2022/11/15 07:24:11;;;;;;;;;7.75;7.75;;;;;9.97;85.43;99700.72;5062402;28;45525;-71
2022/11/15 07:26:37;;;;;;;;;10.00;9.25;;;;;10.01;85.82;99703.13;5065817;27;45350;-71
2022/11/15 07:29:02;;;;;;;;;9.25;9.25;;;;;10.04;85.46;99713.47;5066699;27;45529;-71
2022/11/15 07:31:28;;;;;;;;;10.25;10.25;;;;;10.07;85.65;99713.31;5064014;27;47003;-71
2022/11/15 07:33:53;;;;;;;;;6.75;6.75;;;;;9.94;85.88;99672.84;5088747;27;45624;-71
2022/11/15 07:36:18;;;;;;;;;7.50;6.25;;;;;10.12;86.13;99704.34;5060685;27;45639;-70
2022/11/15 07:38:44;;;;;;;;;5.00;5.00;;;;;10.14;85.53;99707.72;5062618;28;45402;-71
2022/11/15 07:41:09;;;;;;;;;7.75;7.75;;;;;10.15;85.28;99701.56;5065903;28;45468;-72
2022/11/15 07:43:35;;;;;;;;;6.50;6.00;;;;;10.18;85.31;99701.38;5066205;28;45636;-73
2022/11/15 07:46:09;;;;;;;;;8.50;8.50;;;;;10.16;85.87;99684.84;5073904;27;45365;-72
2022/11/15 07:48:40;;;;;;;;;9.00;9.00;;;;;10.21;85.71;99688.09;5063936;27;45359;-71
2022/11/15 07:51:06;;;;;;;;;8.75;8.75;;;;;10.22;86.01;99671.38;5062467;27;45594;-73
2022/11/15 07:53:31;;;;;;;;;6.25;6.25;;;;;10.30;85.23;99678.88;5055794;28;45653;-74
2022/11/15 07:55:57;;;;;;;;;6.75;6.75;;;;;10.30;85.10;99656.06;5091484;27;45506;-76
2022/11/15 07:58:22;;;;;;;;;9.50;9.50;;;;;10.37;85.32;99652.16;5058389;28;45313;-74
2022/11/15 08:00:47;;;;;;;;;5.00;5.00;;;;;10.32;85.10;99641.03;5057900;28;45372;-72
2022/11/15 08:03:15;;;;;;;;;6.00;6.00;;;;;10.44;85.07;99642.19;5058171;28;45576;-72
2022/11/15 08:05:42;;;;;;;;;23.50;23.50;;;;;10.48;85.15;99650.75;5056961;28;45734;-73
2022/11/15 08:08:10;;;;;;;;;8.25;8.25;;;;;10.51;84.86;99642.69;5056501;28;45378;-74
2022/11/15 08:10:36;;;;;;;;;7.25;7.25;;;;;10.55;84.98;99649.47;5089995;27;45595;-72
2022/11/15 08:13:05;;;;;;;;;7.00;7.00;;;;;10.58;85.05;99643.22;5055822;28;46303;-71
2022/11/15 08:15:31;;;;;;;;;7.00;7.00;;;;;10.59;84.23;99631.78;5057026;28;45414;-72
2022/11/15 08:17:59;;;;;;;;;7.50;7.50;;;;;10.66;84.51;99633.13;5054903;28;45475;-74
2022/11/15 08:20:26;;;;;;;;;5.00;5.00;;;;;10.73;83.91;99633.63;5059303;28;45549;-74
2022/11/15 08:22:51;;;;;;;;;5.00;5.00;;;;;10.73;84.03;99636.28;5060270;28;45535;-75
2022/11/15 08:25:17;;;;;;;;;15.25;15.25;;;;;10.78;84.08;99640.31;5058850;28;45403;-73
2022/11/15 08:27:43;;;;;;;;;6.25;6.25;;;;;10.82;83.38;99641.00;5056000;28;45403;-76
2022/11/15 08:30:09;;;;;;;;;3.25;3.25;;;;;10.85;83.57;99642.59;5057236;28;45310;-70
2022/11/15 08:32:34;;;;;;;;;7.75;7.75;;;;;10.78;83.36;99618.44;5057912;28;45479;-71
2022/11/15 08:35:00;;;;;;;;;7.50;7.50;;;;;10.93;82.74;99633.34;5057980;28;45482;-71
2022/11/15 08:37:25;;;;;;;;;7.00;7.00;;;;;10.94;83.09;99629.78;5057156;28;45389;-71
2022/11/15 08:39:50;;;;;;;;;7.50;7.50;;;;;11.05;83.55;99636.22;5056993;28;45520;-71
2022/11/15 08:42:16;;;;;;;;;18.00;18.00;;;;;11.15;83.14;99640.03;5056543;28;45424;-71
2022/11/15 08:44:42;;;;;;;;;10.25;10.25;;;;;11.19;82.46;99638.91;5056656;28;45405;-74
2022/11/15 08:47:10;;;;;;;;;7.00;7.00;;;;;11.24;82.21;99625.50;5056780;28;45441;-74
2022/11/15 08:49:35;;;;;;;;;6.00;6.00;;;;;11.22;82.15;99611.56;5089646;27;45286;-71
2022/11/15 08:52:01;;;;;;;;;7.75;7.50;;;;;11.33;81.50;99624.94;5056591;28;45967;-72
2022/11/15 08:54:26;;;;;;;;;4.75;4.75;;;;;11.32;82.05;99609.22;5088730;27;45515;-72
2022/11/15 08:56:52;;;;;;;;;6.75;6.75;;;;;11.43;81.90;99604.16;5056896;28;45266;-71
2022/11/15 08:59:17;;;;;;;;;7.25;7.25;;;;;11.51;81.37;99601.91;5056726;28;45273;-73
2022/11/15 09:01:42;;;;;;;;;15.25;15.25;;;;;11.61;80.76;99598.72;5056163;28;46711;-76
2022/11/15 09:04:08;;;;;;;;;6.00;6.00;;;;;11.70;81.47;99595.56;5071188;27;45280;-74
2022/11/15 09:06:33;;;;;;;;;8.75;8.25;;;;;11.78;80.62;99590.69;5056869;28;45418;-73
2022/11/15 09:09:00;;;;;;;;;6.00;6.00;;;;;11.83;80.35;99591.25;5056254;28;45539;-70
2022/11/15 09:11:26;;;;;;;;;6.50;6.50;;;;;11.93;79.92;99578.34;5055938;28;46407;-72
2022/11/15 09:13:51;;;;;;;;;5.00;5.00;;;;;11.98;79.62;99581.53;5056033;28;45508;-72
2022/11/15 09:16:17;;;;;;;;;6.00;6.00;;;;;12.03;79.27;99575.16;5056168;28;45370;-74
2022/11/15 09:18:42;;;;;;;;;4.50;4.50;;;;;12.08;79.02;99573.94;5056419;28;45464;-73
2022/11/15 09:21:08;;;;;;;;;4.75;4.75;;;;;12.07;78.95;99577.50;5056539;28;45213;-77
2022/11/15 09:23:34;;;;;;;;;4.00;4.00;;;;;12.15;78.40;99576.19;5054755;28;45345;-76
2022/11/15 09:26:01;;;;;;;;;5.00;4.00;;;;;12.17;78.19;99572.50;5056207;28;45209;-75
2022/11/15 09:28:27;;;;;;;;;3.50;3.50;;;;;12.18;77.91;99578.63;5056302;28;45245;-75
2022/11/15 09:30:57;;;;;;;;;2.00;2.00;;;;;12.19;77.96;99580.31;5055657;28;45413;-76
2022/11/15 09:33:23;;;;;;;;;5.00;5.00;;;;;12.21;77.17;99575.78;5088454;27;45412;-75
2022/11/15 09:35:48;;;;;;;;;6.00;6.00;;;;;12.19;77.65;99570.59;5054449;28;45297;-78
2022/11/15 09:38:13;;;;;;;;;5.00;5.00;;;;;12.24;77.73;99575.59;5088699;27;45543;-76
2022/11/15 09:40:38;;;;;;;;;5.00;5.00;;;;;12.29;77.20;99570.06;5056015;28;45292;-73
2022/11/15 09:43:22;;;;;;;;;5.00;5.00;;;;;12.28;77.01;99574.47;5056611;28;45436;-72
2022/11/15 09:46:01;;;;;;;;;5.00;5.00;;;;;12.29;76.83;99576.16;5056443;28;45250;-76
2022/11/15 09:48:39;;;;;;;;;5.00;5.00;;;;;12.32;76.71;99575.97;5056129;28;45290;-74
2022/11/15 09:51:08;;;;;;;;;5.00;4.00;;;;;12.34;76.54;99574.06;5087747;27;46406;-70
2022/11/15 09:53:47;;;;;;;;;6.75;6.75;;;;;12.32;76.97;99568.06;5055130;28;45240;-72
2022/11/15 09:56:26;;;;;;;;;19.75;19.75;;;;;12.37;76.98;99581.78;5055612;28;45363;-70
2022/11/15 09:59:21;;;;;;;;;5.25;5.25;;;;;12.39;77.59;99566.72;5054257;28;45625;-75
2022/11/15 10:01:58;;;;;;;;;6.00;6.00;;;;;12.42;77.90;99571.78;5055458;28;46245;-72
2022/11/15 10:04:25;;;;;;;;;6.75;6.75;;;;;12.42;77.69;99566.50;5056386;28;45192;-75
2022/11/15 10:07:13;;;;;;;;;5.25;5.25;;;;;12.44;77.59;99568.22;5056392;28;45231;-72
2022/11/15 10:09:45;;;;;;;;;8.75;8.75;;;;;12.42;78.32;99560.41;5057380;28;45402;-72
2022/11/15 10:12:13;;;;;;;;;5.75;5.75;;;;;12.38;78.44;99549.19;5055568;28;45608;-74
2022/11/15 10:14:39;;;;;;;;;4.25;4.25;;;;;12.42;78.58;99547.22;5054901;28;45624;-71
2022/11/15 10:17:25;;;;;;;;;6.75;5.75;;;;;12.45;78.54;99554.06;5055323;28;45328;-76
2022/11/15 10:19:55;;;;;;;;;5.25;5.25;;;;;12.39;78.76;99529.78;5055291;27;45335;-72
2022/11/15 10:22:38;;;;;;;;;3.00;3.00;;;;;12.44;79.08;99533.91;5054719;28;46095;-73
2022/11/15 10:25:18;;;;;;;;;7.75;7.75;;;;;12.46;79.36;99526.75;5054692;28;45363;-74
2022/11/15 10:27:56;;;;;;;;;5.00;5.00;;;;;12.47;79.46;99509.97;5054996;28;45385;-70
2022/11/15 10:30:23;;;;;;;;;5.00;5.00;;;;;12.39;79.62;99492.88;5055305;28;45388;-74
2022/11/15 10:32:49;;;;;;;;;6.00;6.00;;;;;12.45;79.87;99489.00;5054360;28;46105;-70
2022/11/15 10:35:25;;;;;;;;;6.00;6.00;;;;;12.53;79.96;99491.97;5054737;28;45349;-72
2022/11/15 10:37:51;;;;;;;;;7.50;7.50;;;;;12.56;80.29;99506.75;5055227;28;45319;-72
2022/11/15 10:40:24;;;;;;;;;4.25;4.25;;;;;12.61;80.29;99499.38;5055492;28;45714;-72
2022/11/15 10:43:10;;;;;;;;;5.75;5.75;;;;;12.62;80.42;99494.94;5054677;28;45687;-71
2022/11/15 10:45:36;;;;;;;;;8.00;8.00;;;;;12.65;80.16;99482.38;5055070;28;45403;-73
2022/11/15 10:48:13;;;;;;;;;13.75;13.75;;;;;12.66;79.89;99476.16;5054636;28;45246;-72
2022/11/15 10:50:47;;;;;;;;;9.00;9.00;;;;;12.67;80.34;99480.50;5055501;28;45601;-69
2022/11/15 10:53:12;;;;;;;;;7.00;7.00;;;;;12.66;79.71;99472.69;5055196;28;46097;-73
2022/11/15 10:55:41;;;;;;;;;8.00;8.00;;;;;12.64;80.73;99472.78;5054857;28;45439;-73
2022/11/15 10:58:21;;;;;;;;;7.00;7.00;;;;;12.60;80.58;99454.63;5055113;28;45314;-71
2022/11/15 11:00:47;;;;;;;;;6.00;6.00;;;;;12.64;80.92;99456.13;5087730;27;45329;-72
2022/11/15 11:03:34;;;;;;;;;7.50;7.50;;;;;12.61;80.84;99454.53;5055072;28;45440;-73
2022/11/15 11:06:06;;;;;;;;;18.50;18.50;;;;;12.60;81.51;99452.84;5054582;28;45366;-73
2022/11/15 11:08:32;;;;;;;;;9.00;9.00;;;;;12.59;81.80;99443.22;5054735;28;45237;-71
2022/11/15 11:10:59;;;;;;;;;8.00;8.00;;;;;12.57;81.52;99437.22;5054714;28;45541;-72
2022/11/15 11:13:34;;;;;;;;;9.00;8.50;;;;;12.59;81.93;99445.88;5054283;28;45440;-72
2022/11/15 11:16:16;;;;;;;;;7.25;7.25;;;;;12.59;82.08;99434.47;5054404;28;45393;-72
2022/11/15 11:19:06;;;;;;;;;5.75;5.75;;;;;12.59;81.85;99426.56;5053481;28;45289;-75
2022/11/15 11:21:59;;;;;;;;;6.25;6.25;;;;;12.60;82.27;99426.44;5054668;28;45390;-75
2022/11/15 11:24:32;;;;;;;;;8.00;8.00;;;;;12.61;81.80;99424.69;5054468;28;46073;-72
2022/11/15 11:27:12;;;;;;;;;7.00;7.00;;;;;12.62;82.21;99423.72;5086028;27;45312;-73
2022/11/15 11:29:59;;;;;;;;;7.25;6.75;;;;;12.58;82.57;99412.53;5054541;28;45316;-72
2022/11/15 11:32:49;;;;;;;;;9.00;9.00;;;;;12.58;83.02;99425.72;5054838;28;45220;-74
2022/11/15 11:35:32;;;;;;;;;5.50;5.50;;;;;12.55;82.67;99410.94;5054528;28;46470;-72
2022/11/15 11:38:16;;;;;;;;;9.75;9.75;;;;;12.56;83.19;99411.78;5052965;28;46046;-72
2022/11/15 11:40:51;;;;;;;;;7.25;7.25;;;;;12.54;83.11;99408.41;5086565;27;45292;-75
2022/11/15 11:43:37;;;;;;;;;10.25;10.25;;;;;12.53;83.75;99409.34;5086616;27;45327;-77
2022/11/15 11:46:14;;;;;;;;;11.50;11.50;;;;;12.54;84.16;99403.13;5053622;28;45414;-74
2022/11/15 11:48:43;;;;;;;;;11.25;11.25;;;;;12.55;84.39;99399.53;5054238;28;45484;-74
2022/11/15 11:51:16;;;;;;;;;9.00;9.00;;;;;12.51;84.20;99391.00;5054420;28;45303;-73
2022/11/15 11:53:55;;;;;;;;;9.00;9.00;;;;;12.51;84.32;99396.28;5054729;28;45224;-72
2022/11/15 11:56:32;;;;;;;;;10.25;10.25;;;;;12.51;84.88;99384.88;5054154;28;45295;-76